createdAt,value
2018-07-08T00:00:42.058Z,2.20
2018-07-08T00:05:45.115Z,2.60
2018-07-08T00:10:49.295Z,1.30
2018-07-08T00:15:52.298Z,2.20
2018-07-08T00:20:56.005Z,1.90
2018-07-08T00:25:59.019Z,1.50
2018-07-08T00:31:02.012Z,1.90
2018-07-08T00:36:05.139Z,1.53
2018-07-08T00:41:08.137Z,1.80
2018-07-08T00:46:11.167Z,1.87
2018-07-08T00:51:14.219Z,2.47
2018-07-08T00:56:17.224Z,1.70
2018-07-08T01:01:20.271Z,1.80
2018-07-08T01:06:23.287Z,2.40
2018-07-08T01:11:26.293Z,1.50
2018-07-08T01:16:29.299Z,1.70
2018-07-08T01:21:32.309Z,1.63
2018-07-08T01:26:35.735Z,2.23
2018-07-08T01:31:38.744Z,1.90
2018-07-08T01:36:41.734Z,1.93
2018-07-08T01:41:44.790Z,1.83
2018-07-08T01:46:47.856Z,1.80
2018-07-08T01:51:50.856Z,1.97
2018-07-08T01:56:53.860Z,2.40
2018-07-08T02:01:56.856Z,1.63
2018-07-08T02:07:00.072Z,2.90
2018-07-08T02:12:03.091Z,2.30
2018-07-08T02:17:06.096Z,2.83
2018-07-08T02:22:09.106Z,1.60
2018-07-08T02:27:12.174Z,1.77
2018-07-08T02:32:15.171Z,1.60
2018-07-08T02:37:18.183Z,1.60
2018-07-08T02:42:21.191Z,2.13
2018-07-08T02:47:24.515Z,2.00
2018-07-08T02:52:27.603Z,2.60
2018-07-08T02:57:30.602Z,2.77
2018-07-08T03:02:33.608Z,2.40
2018-07-08T03:07:36.610Z,2.20
2018-07-08T03:12:39.616Z,2.23
2018-07-08T03:17:42.644Z,2.40
2018-07-08T03:22:45.717Z,2.43
2018-07-08T03:27:48.734Z,2.43
2018-07-08T03:32:51.736Z,2.40
2018-07-08T03:37:54.744Z,2.63
2018-07-08T03:42:57.766Z,2.77
2018-07-08T03:48:01.042Z,2.27
2018-07-08T03:53:04.058Z,2.03
2018-07-08T03:58:07.143Z,1.97
2018-07-08T04:03:10.155Z,2.40
2018-07-08T04:08:13.191Z,1.90
2018-07-08T04:13:16.194Z,2.37
2018-07-08T04:18:19.182Z,1.93
2018-07-08T04:23:22.174Z,2.13
2018-07-08T04:28:25.193Z,3.30
2018-07-08T04:33:28.264Z,2.90
2018-07-08T04:38:31.268Z,2.03
2018-07-08T04:43:34.281Z,2.83
2018-07-08T04:48:37.294Z,2.23
2018-07-08T04:53:40.388Z,4.10
2018-07-08T04:58:43.402Z,2.20
2018-07-08T05:03:46.586Z,3.17
2018-07-08T05:08:49.694Z,2.10
2018-07-08T05:13:52.695Z,2.70
2018-07-08T05:18:55.678Z,3.43
2018-07-08T05:23:58.698Z,2.17
2018-07-08T05:29:01.691Z,2.80
2018-07-08T05:34:04.935Z,2.17
2018-07-08T05:39:08.006Z,4.07
2018-07-08T05:44:11.026Z,2.60
2018-07-08T05:49:14.122Z,2.80
2018-07-08T05:54:17.134Z,2.80
2018-07-08T05:59:20.231Z,2.57
2018-07-08T06:04:23.396Z,2.70
2018-07-08T06:09:26.481Z,2.80
2018-07-08T06:14:29.877Z,3.30
2018-07-08T06:19:33.335Z,3.00
2018-07-08T06:24:36.503Z,3.57
2018-07-08T06:29:39.933Z,3.57
2018-07-08T06:34:43.274Z,3.73
2018-07-08T06:39:46.556Z,2.90
2018-07-08T06:44:49.629Z,3.30
2018-07-08T06:49:52.634Z,4.00
2018-07-08T06:54:55.715Z,3.23
2018-07-08T06:59:58.739Z,4.07
2018-07-08T07:05:01.808Z,3.53
2018-07-08T07:10:04.820Z,3.63
2018-07-08T07:15:07.924Z,4.87
2018-07-08T07:20:10.959Z,4.67
2018-07-08T07:25:13.949Z,4.40
2018-07-08T07:30:16.991Z,3.37
2018-07-08T07:35:20.005Z,4.10
2018-07-08T07:40:23.050Z,4.87
2018-07-08T07:45:26.108Z,4.20
2018-07-08T07:50:29.110Z,4.20
2018-07-08T07:55:32.122Z,4.43
2018-07-08T08:00:35.115Z,4.60
2018-07-08T08:05:38.102Z,4.37
2018-07-08T08:10:41.117Z,4.93
2018-07-08T08:15:44.110Z,4.27
2018-07-08T08:20:47.106Z,4.20
2018-07-08T08:25:50.106Z,4.53
2018-07-08T08:30:53.220Z,5.40
2018-07-08T08:35:56.242Z,6.37
2018-07-08T08:40:59.278Z,5.27
2018-07-08T08:46:02.367Z,4.87
2018-07-08T08:51:05.589Z,6.20
2018-07-08T08:56:10.660Z,5.00
2018-07-08T09:01:13.660Z,6.00
2018-07-08T09:06:16.687Z,4.40
2018-07-08T09:11:19.714Z,5.00
2018-07-08T09:16:22.743Z,6.60
2018-07-08T09:21:25.742Z,5.60
2018-07-08T09:26:28.830Z,4.67
2018-07-08T09:31:31.981Z,5.37
2018-07-08T09:36:35.283Z,5.30
2018-07-08T09:41:38.687Z,5.20
2018-07-08T09:46:42.842Z,4.40
2018-07-08T09:51:46.315Z,5.07
2018-07-08T09:56:49.323Z,5.57
2018-07-08T10:01:52.329Z,4.63
2018-07-08T10:06:55.650Z,5.40
2018-07-08T10:11:58.762Z,5.80
2018-07-08T10:17:01.780Z,5.80
2018-07-08T10:22:04.807Z,5.37
2018-07-08T10:27:26.160Z,5.10
2018-07-08T10:32:29.153Z,5.43
2018-07-08T10:37:32.204Z,5.87
2018-07-08T10:42:35.339Z,6.30
2018-07-08T10:47:38.337Z,5.07
2018-07-08T10:52:41.366Z,6.53
2018-07-08T10:57:44.399Z,5.77
2018-07-08T11:02:47.398Z,6.27
2018-07-08T11:07:50.429Z,7.03
2018-07-08T11:12:53.435Z,6.40
2018-07-08T11:17:56.447Z,9.97
2018-07-08T11:22:59.438Z,6.00
2018-07-08T11:28:02.476Z,5.83
2018-07-08T11:33:05.851Z,7.10
2018-07-08T11:38:08.859Z,5.97
2018-07-08T11:43:11.878Z,5.57
2018-07-08T11:48:14.903Z,6.67
2018-07-08T11:53:17.733Z,6.53
2018-07-08T11:58:20.880Z,6.00
2018-07-08T12:03:23.968Z,7.00
2018-07-08T12:08:26.992Z,6.93
2018-07-08T12:13:29.988Z,6.90
2018-07-08T12:18:33.035Z,6.03
2018-07-08T12:23:39.048Z,6.50
2018-07-08T12:28:42.119Z,4.70
2018-07-08T12:33:45.141Z,6.10
2018-07-08T12:38:48.135Z,5.97
2018-07-08T12:43:51.246Z,6.23
2018-07-08T12:48:54.250Z,6.53
2018-07-08T12:53:57.346Z,6.03
2018-07-08T12:59:00.403Z,6.20
2018-07-08T13:04:03.526Z,6.00
2018-07-08T13:09:06.366Z,6.43
2018-07-08T13:14:09.514Z,5.63
2018-07-08T13:19:12.610Z,5.73
2018-07-08T13:24:15.678Z,5.80
2018-07-08T13:29:18.719Z,5.57
2018-07-08T13:34:21.810Z,5.20
2018-07-08T13:39:24.794Z,5.20
2018-07-08T13:44:27.912Z,5.03
2018-07-08T13:49:30.918Z,4.80
2018-07-08T13:54:34.012Z,5.13
2018-07-08T13:59:37.133Z,5.07
2018-07-08T14:04:40.203Z,4.70
2018-07-08T14:09:43.333Z,4.60
2018-07-08T14:14:46.576Z,5.37
2018-07-08T14:19:49.531Z,4.67
2018-07-08T14:24:52.548Z,4.40
2018-07-08T14:29:55.600Z,5.00
2018-07-08T14:34:58.602Z,5.37
2018-07-08T14:40:01.613Z,4.63
2018-07-08T14:45:04.629Z,4.67
2018-07-08T14:50:07.645Z,4.43
2018-07-08T14:55:10.622Z,4.17
2018-07-08T15:00:13.653Z,4.70
2018-07-08T15:05:16.654Z,5.63
2018-07-08T15:10:19.666Z,4.70
2018-07-08T15:15:22.775Z,4.50
2018-07-08T15:20:25.867Z,4.50
2018-07-08T15:25:28.886Z,3.80
2018-07-08T15:30:32.080Z,4.77
2018-07-08T15:35:35.141Z,4.43
2018-07-08T15:40:38.283Z,4.87
2018-07-08T15:45:41.270Z,3.60
2018-07-08T15:50:44.290Z,3.57
2018-07-08T15:55:47.315Z,5.27
2018-07-08T16:00:50.302Z,4.17
2018-07-08T16:05:53.408Z,4.33
2018-07-08T16:10:56.378Z,4.67
2018-07-08T16:15:59.396Z,4.10
2018-07-08T16:21:02.739Z,4.50
2018-07-08T16:26:05.734Z,5.17
2018-07-08T16:31:08.946Z,5.30
2018-07-08T16:36:12.020Z,3.90
2018-07-08T16:41:15.024Z,4.50
2018-07-08T16:46:19.261Z,3.90
2018-07-08T16:51:22.295Z,6.07
2018-07-08T16:56:25.318Z,4.20
2018-07-08T17:01:29.405Z,4.10
2018-07-08T17:06:32.926Z,4.33
2018-07-08T17:11:36.007Z,4.40
2018-07-08T17:16:39.043Z,4.70
2018-07-08T17:21:42.597Z,3.53
2018-07-08T17:26:45.439Z,4.00
2018-07-08T17:31:49.912Z,3.47
2018-07-08T17:36:53.576Z,3.73
2018-07-08T17:41:56.598Z,4.13
2018-07-08T17:46:59.607Z,3.73
2018-07-08T17:52:02.614Z,3.73
2018-07-08T17:57:05.630Z,3.30
2018-07-08T18:02:08.639Z,3.40
2018-07-08T18:07:11.664Z,3.90
2018-07-08T18:12:14.668Z,4.20
2018-07-08T18:17:17.690Z,3.50
2018-07-08T18:22:20.926Z,4.00
2018-07-08T18:27:23.939Z,4.07
2018-07-08T18:32:27.022Z,3.77
2018-07-08T18:37:30.135Z,3.80
2018-07-08T18:42:33.129Z,3.23
2018-07-08T18:47:36.129Z,3.10
2018-07-08T18:52:39.364Z,3.40
2018-07-08T18:57:42.462Z,3.17
2018-07-08T19:02:45.555Z,3.10
2018-07-08T19:07:48.560Z,3.63
2018-07-08T19:12:51.568Z,6.60
2018-07-08T19:17:54.646Z,17.70
2018-07-08T19:22:57.458Z,5.47
2018-07-08T19:28:00.462Z,3.80
2018-07-08T19:33:03.452Z,3.20
2018-07-08T19:38:06.471Z,2.70
2018-07-08T19:43:09.468Z,3.27
2018-07-08T19:48:12.502Z,2.97
2018-07-08T19:53:15.487Z,3.10
2018-07-08T19:58:18.471Z,2.90
2018-07-08T20:03:21.540Z,2.77
2018-07-08T20:08:24.550Z,2.43
2018-07-08T20:13:27.592Z,3.20
2018-07-08T20:18:31.076Z,3.50
2018-07-08T20:23:34.207Z,5.57
2018-07-08T20:28:37.228Z,3.97
2018-07-08T20:33:40.225Z,3.13
2018-07-08T20:38:43.236Z,3.20
2018-07-08T20:43:46.218Z,3.70
2018-07-08T20:48:49.226Z,3.83
2018-07-08T20:53:52.217Z,3.10
2018-07-08T20:58:55.222Z,3.40
2018-07-08T21:03:58.327Z,3.17
2018-07-08T21:09:02.148Z,4.60
2018-07-08T21:14:05.255Z,3.70
2018-07-08T21:19:08.259Z,2.97
2018-07-08T21:24:11.276Z,3.43
2018-07-08T21:29:14.287Z,3.33
2018-07-08T21:34:17.384Z,4.10
2018-07-08T21:39:20.408Z,3.77
2018-07-08T21:44:23.505Z,3.60
2018-07-08T21:49:26.722Z,3.13
2018-07-08T21:54:29.719Z,3.33
2018-07-08T21:59:32.795Z,3.90
2018-07-08T22:04:35.963Z,3.30
2018-07-08T22:09:38.957Z,3.70
2018-07-08T22:14:42.012Z,2.90
2018-07-08T22:19:45.028Z,3.00
2018-07-08T22:24:48.115Z,3.00
2018-07-08T22:29:51.102Z,3.70
2018-07-08T22:34:54.126Z,3.43
2018-07-08T22:39:57.116Z,2.97
2018-07-08T22:45:00.226Z,2.90
2018-07-08T22:50:03.326Z,3.60
2018-07-08T22:55:06.436Z,3.03
2018-07-08T23:00:21.117Z,3.53
2018-07-08T23:05:24.098Z,2.83
2018-07-08T23:10:27.099Z,4.00
2018-07-08T23:15:30.117Z,2.80
2018-07-08T23:20:33.206Z,3.20
2018-07-08T23:25:36.222Z,3.20
2018-07-08T23:30:39.223Z,3.60
2018-07-08T23:35:42.339Z,3.40
2018-07-08T23:40:45.323Z,3.30
2018-07-08T23:45:48.328Z,3.43
2018-07-08T23:50:51.442Z,3.30
2018-07-08T23:55:54.551Z,3.20
